createdAt,value
2022-08-01T00:00:08.940Z,95134.72
2022-08-01T00:02:37.590Z,95136.19
2022-08-01T00:05:06.905Z,95141.66
2022-08-01T00:07:34.691Z,95134.22
2022-08-01T00:10:02.222Z,95139.47
2022-08-01T00:12:28.923Z,95136.47
2022-08-01T00:14:55.517Z,95145.34
2022-08-01T00:17:22.236Z,95142.72
2022-08-01T00:19:48.943Z,95136.28
2022-08-01T00:22:15.698Z,95147.75
2022-08-01T00:24:42.331Z,95148.34
2022-08-01T00:27:08.995Z,95149.34
2022-08-01T00:30:09.914Z,95149.56
2022-08-01T00:32:22.323Z,95147.75
2022-08-01T00:34:48.965Z,95145.94
2022-08-01T00:37:16.498Z,95147.97
2022-08-01T00:39:43.598Z,95149.78
2022-08-01T00:42:11.918Z,95144.56
2022-08-01T00:44:39.236Z,95144.56
2022-08-01T00:47:06.990Z,95148.19
2022-08-01T00:49:34.275Z,95148.16
2022-08-01T00:52:02.296Z,95152.59
2022-08-01T00:54:29.466Z,95148.94
2022-08-01T00:56:56.821Z,95148.13
2022-08-01T00:59:23.938Z,95150.34
2022-08-01T01:01:52.794Z,95148.75
2022-08-01T01:04:20.509Z,95149.53
2022-08-01T01:07:08.511Z,95154.59
2022-08-01T01:09:46.863Z,95150.53
2022-08-01T01:12:55.550Z,95153.13
2022-08-01T01:15:31.790Z,95152.75
2022-08-01T01:18:10.470Z,95151.31
2022-08-01T01:20:41.181Z,95155.94
2022-08-01T01:23:10.830Z,95150.50
2022-08-01T01:26:21.915Z,95147.88
2022-08-01T01:28:50.985Z,95150.91
2022-08-01T01:31:22.222Z,95160.94
2022-08-01T01:33:51.100Z,95160.13
2022-08-01T01:36:19.055Z,95153.50
2022-08-01T01:38:48.322Z,95164.19
2022-08-01T01:41:17.929Z,95150.31
2022-08-01T01:43:46.796Z,95152.13
2022-08-01T01:46:17.922Z,95148.72
2022-08-01T01:48:45.677Z,95155.97
2022-08-01T01:51:14.148Z,95153.56
2022-08-01T01:53:42.327Z,95155.00
2022-08-01T01:56:11.075Z,95162.84
2022-08-01T01:58:40.241Z,95149.53
2022-08-01T02:01:14.460Z,95155.00
2022-08-01T02:03:44.316Z,95155.16
2022-08-01T02:06:14.716Z,95155.75
2022-08-01T02:08:43.515Z,95158.78
2022-08-01T02:11:19.731Z,95164.78
2022-08-01T02:14:00.045Z,95168.59
2022-08-01T02:16:29.954Z,95171.38
2022-08-01T02:18:57.069Z,95170.34
2022-08-01T02:21:30.807Z,95167.72
2022-08-01T02:24:09.399Z,95168.47
2022-08-01T02:26:40.340Z,95167.47
2022-08-01T02:29:09.604Z,95166.44
2022-08-01T02:31:39.510Z,95174.09
2022-08-01T02:34:10.326Z,95174.28
2022-08-01T02:36:38.213Z,95168.66
2022-08-01T02:39:14.443Z,95169.63
2022-08-01T02:41:44.363Z,95172.66
2022-08-01T02:44:24.599Z,95178.91
2022-08-01T02:46:58.652Z,95179.50
2022-08-01T02:49:27.446Z,95179.69
2022-08-01T02:51:56.833Z,95183.31
2022-08-01T02:54:25.125Z,95184.13
2022-08-01T02:56:54.472Z,95185.16
2022-08-01T02:59:26.696Z,95188.22
2022-08-01T03:01:56.327Z,95180.41
2022-08-01T03:04:24.732Z,95182.66
2022-08-01T03:06:56.207Z,95182.84
2022-08-01T03:09:23.955Z,95184.91
2022-08-01T03:11:51.725Z,95177.66
2022-08-01T03:14:21.703Z,95181.88
2022-08-01T03:16:50.541Z,95190.50
2022-08-01T03:19:19.844Z,95184.47
2022-08-01T03:21:49.201Z,95187.06
2022-08-01T03:24:17.486Z,95181.41
2022-08-01T03:26:45.861Z,95192.88
2022-08-01T03:29:20.772Z,95188.97
2022-08-01T03:31:49.740Z,95186.94
2022-08-01T03:34:17.480Z,95189.34
2022-08-01T03:36:50.035Z,95190.75
2022-08-01T03:39:18.753Z,95195.34
2022-08-01T03:41:56.655Z,95192.19
2022-08-01T03:44:29.733Z,95196.78
2022-08-01T03:47:02.223Z,95203.81
2022-08-01T03:49:32.952Z,95204.78
2022-08-01T03:52:03.452Z,95197.50
2022-08-01T03:54:34.677Z,95209.53
2022-08-01T03:57:02.711Z,95206.94
2022-08-01T03:59:31.011Z,95208.50
2022-08-01T04:01:59.009Z,95206.88
2022-08-01T04:04:26.209Z,95215.84
2022-08-01T04:06:55.322Z,95218.25
2022-08-01T04:09:22.789Z,95216.00
2022-08-01T04:11:50.070Z,95210.16
2022-08-01T04:14:16.793Z,95208.00
2022-08-01T04:16:43.530Z,95217.22
2022-08-01T04:19:10.129Z,95224.00
2022-08-01T04:21:37.884Z,95220.94
2022-08-01T04:24:14.982Z,95230.44
2022-08-01T04:26:46.209Z,95230.88
2022-08-01T04:29:16.230Z,95232.72
2022-08-01T04:31:46.392Z,95226.97
2022-08-01T04:34:17.547Z,95227.41
2022-08-01T04:36:45.312Z,95231.88
2022-08-01T04:39:12.846Z,95241.31
2022-08-01T04:41:40.851Z,95236.22
2022-08-01T04:44:07.923Z,95241.03
2022-08-01T04:46:35.931Z,95234.75
2022-08-01T04:49:03.066Z,95234.75
2022-08-01T04:51:29.824Z,95239.66
2022-08-01T04:53:59.600Z,95242.06
2022-08-01T04:56:26.178Z,95247.78
2022-08-01T04:59:19.911Z,95242.56
2022-08-01T05:01:50.127Z,95245.97
2022-08-01T05:04:16.759Z,95247.03
2022-08-01T05:06:43.329Z,95248.88
2022-08-01T05:09:09.940Z,95252.91
2022-08-01T05:11:36.525Z,95254.91
2022-08-01T05:14:03.134Z,95251.69
2022-08-01T05:16:29.740Z,95246.44
2022-08-01T05:18:56.688Z,95253.06
2022-08-01T05:21:23.293Z,95247.22
2022-08-01T05:23:50.091Z,95252.66
2022-08-01T05:26:16.701Z,95250.50
2022-08-01T05:28:43.492Z,95256.94
2022-08-01T05:31:10.174Z,95253.75
2022-08-01T05:33:36.785Z,95257.22
2022-08-01T05:36:03.568Z,95262.28
2022-08-01T05:38:30.205Z,95256.25
2022-08-01T05:40:56.838Z,95261.31
2022-08-01T05:43:28.540Z,95265.97
2022-08-01T05:45:55.767Z,95264.59
2022-08-01T05:48:22.403Z,95265.84
2022-08-01T05:50:49.000Z,95263.75
2022-08-01T05:53:15.674Z,95261.16
2022-08-01T05:55:42.414Z,95268.25
2022-08-01T05:58:09.036Z,95263.97
2022-08-01T06:00:40.043Z,95265.56
2022-08-01T06:03:06.713Z,95268.53
2022-08-01T06:05:33.375Z,95263.44
2022-08-01T06:08:00.039Z,95263.78
2022-08-01T06:10:26.723Z,95268.19
2022-08-01T06:12:53.359Z,95268.75
2022-08-01T06:15:20.042Z,95274.81
2022-08-01T06:17:47.776Z,95270.78
2022-08-01T06:20:14.375Z,95272.56
2022-08-01T06:22:40.993Z,95274.16
2022-08-01T06:25:08.610Z,95278.22
2022-08-01T06:27:36.247Z,95282.25
2022-08-01T06:30:04.466Z,95278.94
2022-08-01T06:32:32.047Z,95275.44
2022-08-01T06:34:58.682Z,95281.97
2022-08-01T06:37:32.775Z,95269.13
2022-08-01T06:40:07.236Z,95277.41
2022-08-01T06:42:36.523Z,95280.97
2022-08-01T06:45:11.104Z,95275.41
2022-08-01T06:47:41.832Z,95271.97
2022-08-01T06:50:09.946Z,95279.84
2022-08-01T06:52:38.833Z,95276.19
2022-08-01T06:55:05.973Z,95278.72
2022-08-01T06:57:32.658Z,95279.34
2022-08-01T07:00:03.302Z,95280.25
2022-08-01T07:02:29.898Z,95268.97
2022-08-01T07:04:56.487Z,95279.66
2022-08-01T07:07:23.078Z,95274.13
2022-08-01T07:09:49.678Z,95283.38
2022-08-01T07:12:18.454Z,95272.84
2022-08-01T07:14:45.075Z,95268.94
2022-08-01T07:17:11.662Z,95275.97
2022-08-01T07:19:38.619Z,95267.06
2022-08-01T07:22:05.481Z,95271.81
2022-08-01T07:24:32.667Z,95275.44
2022-08-01T07:27:24.150Z,95278.06
2022-08-01T07:29:48.326Z,95265.50
2022-08-01T07:32:14.948Z,95272.00
2022-08-01T07:34:42.644Z,95271.06
2022-08-01T07:37:09.269Z,95263.50
2022-08-01T07:39:35.918Z,95266.47
2022-08-01T07:42:07.655Z,95263.59
2022-08-01T07:44:35.365Z,95266.47
2022-08-01T07:47:02.080Z,95267.38
2022-08-01T07:49:28.949Z,95262.66
2022-08-01T07:52:03.276Z,95264.81
2022-08-01T07:54:33.904Z,95259.19
2022-08-01T07:57:01.429Z,95267.19
2022-08-01T07:59:28.151Z,95270.34
2022-08-01T08:01:54.829Z,95271.91
2022-08-01T08:04:21.507Z,95264.72
2022-08-01T08:06:48.661Z,95267.50
2022-08-01T08:09:16.927Z,95256.59
2022-08-01T08:11:48.161Z,95264.34
2022-08-01T08:14:16.606Z,95261.94
2022-08-01T08:16:44.108Z,95261.00
2022-08-01T08:19:11.407Z,95253.78
2022-08-01T08:21:38.808Z,95255.78
2022-08-01T08:24:26.279Z,95260.41
2022-08-01T08:27:01.895Z,95261.03
2022-08-01T08:29:30.880Z,95262.53
2022-08-01T08:31:58.934Z,95263.44
2022-08-01T08:34:26.718Z,95261.09
2022-08-01T08:36:54.147Z,95265.84
2022-08-01T08:39:21.074Z,95263.69
2022-08-01T08:41:49.367Z,95262.09
2022-08-01T08:44:18.114Z,95263.38
2022-08-01T08:46:47.690Z,95258.53
2022-08-01T08:49:18.441Z,95249.38
2022-08-01T08:51:49.476Z,95258.53
2022-08-01T08:54:17.417Z,95253.34
2022-08-01T08:56:45.442Z,95255.84
2022-08-01T08:59:14.532Z,95248.59
2022-08-01T09:01:42.568Z,95256.31
2022-08-01T09:04:10.178Z,95253.00
2022-08-01T09:06:37.298Z,95243.06
2022-08-01T09:09:05.473Z,95248.28
2022-08-01T09:11:32.487Z,95253.41
2022-08-01T09:14:23.200Z,95249.56
2022-08-01T09:16:59.669Z,95249.94
2022-08-01T09:19:40.322Z,95251.69
2022-08-01T09:22:18.960Z,95260.81
2022-08-01T09:25:09.545Z,95255.91
2022-08-01T09:27:39.117Z,95259.50
2022-08-01T09:30:12.797Z,95254.59
2022-08-01T09:32:58.628Z,95256.72
2022-08-01T09:35:43.906Z,95252.00
2022-08-01T09:38:14.602Z,95245.34
2022-08-01T09:40:55.641Z,95244.34
2022-08-01T09:43:25.067Z,95245.56
2022-08-01T09:45:53.439Z,95243.09
2022-08-01T09:48:22.653Z,95244.84
2022-08-01T09:50:55.481Z,95241.25
2022-08-01T09:53:29.407Z,95241.25
2022-08-01T09:56:10.597Z,95240.06
2022-08-01T09:59:06.953Z,95245.78
2022-08-01T10:02:02.782Z,95238.25
2022-08-01T10:04:29.513Z,95233.22
2022-08-01T10:07:06.668Z,95238.06
2022-08-01T10:09:40.873Z,95231.44
2022-08-01T10:12:09.151Z,95229.03
2022-08-01T10:14:46.161Z,95230.38
2022-08-01T10:17:19.610Z,95223.06
2022-08-01T10:19:47.891Z,95227.69
2022-08-01T10:22:17.714Z,95226.66
2022-08-01T10:24:49.673Z,95219.41
2022-08-01T10:27:24.741Z,95220.50
2022-08-01T10:30:15.477Z,95214.72
2022-08-01T10:32:50.627Z,95218.69
2022-08-01T10:35:45.749Z,95212.63
2022-08-01T10:38:06.789Z,95214.16
2022-08-01T10:40:38.315Z,95208.06
2022-08-01T10:43:06.845Z,95213.78
2022-08-01T10:45:34.417Z,95208.28
2022-08-01T10:48:10.808Z,95205.13
2022-08-01T10:50:48.663Z,95207.81
2022-08-01T10:53:23.248Z,95212.34
2022-08-01T10:55:56.920Z,95199.47
2022-08-01T10:58:42.834Z,95192.91
2022-08-01T11:01:20.491Z,95200.06
2022-08-01T11:03:58.333Z,95200.94
2022-08-01T11:06:53.373Z,95204.38
2022-08-01T11:09:36.572Z,95196.38
2022-08-01T11:12:24.610Z,95182.69
2022-08-01T11:15:00.663Z,95184.16
2022-08-01T11:17:37.168Z,95185.91
2022-08-01T11:20:19.262Z,95177.47
2022-08-01T11:22:58.513Z,95172.72
2022-08-01T11:26:05.653Z,95183.88
2022-08-01T11:28:15.442Z,95180.13
2022-08-01T11:30:46.358Z,95175.00
2022-08-01T11:33:14.859Z,95172.13
2022-08-01T11:36:14.593Z,95176.13
2022-08-01T11:39:01.703Z,95175.69
2022-08-01T11:41:38.044Z,95173.72
2022-08-01T11:44:06.448Z,95174.84
2022-08-01T11:46:57.822Z,95174.41
2022-08-01T11:49:38.658Z,95177.56
2022-08-01T11:52:11.997Z,95180.91
2022-08-01T11:54:50.586Z,95178.47
2022-08-01T11:57:23.023Z,95167.03
2022-08-01T12:00:03.793Z,95173.38
2022-08-01T12:02:39.831Z,95172.38
2022-08-01T12:05:13.957Z,95172.56
2022-08-01T12:07:42.664Z,95168.66
2022-08-01T12:10:14.958Z,95170.31
2022-08-01T12:12:50.492Z,95166.19
2022-08-01T12:15:18.406Z,95154.47
2022-08-01T12:17:58.333Z,95152.63
2022-08-01T12:20:32.364Z,95142.59
2022-08-01T12:23:01.826Z,95138.94
2022-08-01T12:25:28.780Z,95150.53
2022-08-01T12:27:57.844Z,95143.16
2022-08-01T12:30:26.155Z,95153.50
2022-08-01T12:32:54.359Z,95141.06
2022-08-01T12:35:24.200Z,95134.34
2022-08-01T12:37:55.047Z,95133.47
2022-08-01T12:40:21.666Z,95136.69
2022-08-01T12:42:59.537Z,95129.63
2022-08-01T12:45:36.380Z,95131.69
2022-08-01T12:48:08.467Z,95125.31
2022-08-01T12:50:37.985Z,95124.53
2022-08-01T12:53:05.098Z,95121.72
2022-08-01T12:55:34.821Z,95129.41
2022-08-01T12:58:11.538Z,95122.84
2022-08-01T13:00:45.186Z,95121.59
2022-08-01T13:03:18.253Z,95119.47
2022-08-01T13:05:46.326Z,95119.66
2022-08-01T13:08:14.579Z,95119.81
2022-08-01T13:10:42.125Z,95111.88
2022-08-01T13:13:09.928Z,95110.44
2022-08-01T13:15:41.782Z,95112.84
2022-08-01T13:18:31.628Z,95110.81
2022-08-01T13:21:11.854Z,95105.25
2022-08-01T13:24:03.162Z,95105.13
2022-08-01T13:27:01.099Z,95104.94
2022-08-01T13:29:32.538Z,95108.78
2022-08-01T13:32:00.426Z,95105.09
2022-08-01T13:34:34.856Z,95106.78
2022-08-01T13:37:02.635Z,95103.97
2022-08-01T13:39:41.326Z,95119.69
2022-08-01T13:42:09.797Z,95120.38
2022-08-01T13:44:36.782Z,95117.81
2022-08-01T13:47:11.651Z,95117.78
2022-08-01T13:49:44.032Z,95112.69
2022-08-01T13:52:11.102Z,95111.34
2022-08-01T13:54:37.957Z,95112.13
2022-08-01T13:57:05.068Z,95111.28
2022-08-01T13:59:31.687Z,95110.69
2022-08-01T14:01:58.372Z,95117.53
2022-08-01T14:04:25.291Z,95112.53
2022-08-01T14:06:51.986Z,95109.81
2022-08-01T14:09:23.811Z,95118.63
2022-08-01T14:11:51.327Z,95114.56
2022-08-01T14:14:17.993Z,95112.63
2022-08-01T14:16:45.969Z,95116.69
2022-08-01T14:19:12.916Z,95124.25
2022-08-01T14:21:39.597Z,95123.97
2022-08-01T14:24:07.621Z,95135.44
2022-08-01T14:26:34.734Z,95136.00
2022-08-01T14:29:03.178Z,95130.91
2022-08-01T14:31:34.103Z,95145.56
2022-08-01T14:34:01.280Z,95141.28
2022-08-01T14:36:30.510Z,95139.44
2022-08-01T14:39:00.617Z,95150.50
2022-08-01T14:41:28.402Z,95149.94
2022-08-01T14:43:55.924Z,95153.03
2022-08-01T14:46:22.568Z,95148.69
2022-08-01T14:48:49.271Z,95142.84
2022-08-01T14:51:15.893Z,95141.06
2022-08-01T14:53:47.101Z,95142.38
2022-08-01T14:56:18.340Z,95137.09
2022-08-01T14:58:45.088Z,95129.69
2022-08-01T15:01:11.991Z,95133.41
2022-08-01T15:03:38.703Z,95130.69
2022-08-01T15:06:07.259Z,95134.47
2022-08-01T15:08:34.147Z,95142.97
2022-08-01T15:11:02.237Z,95148.59
2022-08-01T15:13:28.898Z,95161.56
2022-08-01T15:15:55.567Z,95155.34
2022-08-01T15:18:28.542Z,95153.19
2022-08-01T15:20:55.746Z,95160.41
2022-08-01T15:23:22.449Z,95157.16
2022-08-01T15:25:50.247Z,95171.75
2022-08-01T15:28:17.187Z,95173.28
2022-08-01T15:30:44.034Z,95182.00
2022-08-01T15:33:10.620Z,95187.66
2022-08-01T15:35:37.332Z,95186.75
2022-08-01T15:38:03.950Z,95189.25
2022-08-01T15:40:33.985Z,95197.66
2022-08-01T15:43:00.868Z,95204.78
2022-08-01T15:48:14.211Z,95218.03
2022-08-01T15:50:40.905Z,95222.06
2022-08-01T15:53:07.894Z,95221.59
2022-08-01T15:55:38.712Z,95217.41
2022-08-01T15:58:05.630Z,95225.66
2022-08-01T16:00:32.892Z,95219.03
2022-08-01T16:03:05.611Z,95220.22
2022-08-01T16:05:32.210Z,95225.41
2022-08-01T16:08:01.645Z,95202.38
2022-08-01T16:10:30.247Z,95186.53
2022-08-01T16:12:57.009Z,95171.00
2022-08-01T16:15:36.355Z,95163.81
2022-08-01T16:18:08.000Z,95156.84
2022-08-01T16:20:35.404Z,95151.31
2022-08-01T16:23:02.378Z,95147.25
2022-08-01T16:25:29.144Z,95141.66
2022-08-01T16:27:55.801Z,95147.41
2022-08-01T16:30:22.515Z,95150.22
2022-08-01T16:32:54.319Z,95144.00
2022-08-01T16:35:24.612Z,95147.53
2022-08-01T16:38:06.715Z,95145.66
2022-08-01T16:40:46.474Z,95145.31
2022-08-01T16:43:18.652Z,95146.88
2022-08-01T16:45:46.201Z,95135.88
2022-08-01T16:48:19.671Z,95139.25
2022-08-01T16:50:49.332Z,95139.53
2022-08-01T16:53:20.264Z,95130.19
2022-08-01T16:55:50.146Z,95135.81
2022-08-01T16:58:23.535Z,95130.22
2022-08-01T17:00:56.880Z,95134.75
2022-08-01T17:03:46.880Z,95135.63
2022-08-01T17:06:11.206Z,95138.53
2022-08-01T17:08:46.173Z,95137.78
2022-08-01T17:11:14.679Z,95139.16
2022-08-01T17:13:41.414Z,95139.00
2022-08-01T17:16:09.211Z,95144.75
2022-08-01T17:18:35.901Z,95146.19
2022-08-01T17:21:02.708Z,95148.47
2022-08-01T17:23:31.661Z,95147.88
2022-08-01T17:25:59.597Z,95159.19
2022-08-01T17:28:26.584Z,95153.59
2022-08-01T17:30:53.538Z,95148.44
2022-08-01T17:33:20.544Z,95148.81
2022-08-01T17:35:47.327Z,95156.47
2022-08-01T17:38:14.070Z,95172.88
2022-08-01T17:40:41.250Z,95181.19
2022-08-01T17:43:08.510Z,95174.44
2022-08-01T17:45:39.427Z,95162.13
2022-08-01T17:48:18.891Z,95165.16
2022-08-01T17:50:46.713Z,95145.91
2022-08-01T17:53:14.745Z,95152.56
2022-08-01T17:55:54.466Z,95175.19
2022-08-01T17:58:49.892Z,95193.81
2022-08-01T18:01:11.024Z,95188.44
2022-08-01T18:03:41.222Z,95186.63
2022-08-01T18:06:17.224Z,95176.31
2022-08-01T18:08:46.737Z,95167.44
2022-08-01T18:11:14.844Z,95161.78
2022-08-01T18:13:41.708Z,95157.72
2022-08-01T18:16:11.056Z,95143.59
2022-08-01T18:18:38.725Z,95152.09
2022-08-01T18:21:06.858Z,95165.06
2022-08-01T18:23:34.655Z,95166.88
2022-08-01T18:26:02.518Z,95172.13
2022-08-01T18:28:34.194Z,95171.91
2022-08-01T18:31:06.117Z,95175.31
2022-08-01T18:33:33.674Z,95178.75
2022-08-01T18:36:03.542Z,95184.00
2022-08-01T18:38:32.188Z,95188.84
2022-08-01T18:40:59.758Z,95192.88
2022-08-01T18:43:26.358Z,95192.47
2022-08-01T18:45:53.013Z,95205.38
2022-08-01T18:48:20.138Z,95203.56
2022-08-01T18:50:46.765Z,95202.91
2022-08-01T18:53:13.492Z,95207.94
2022-08-01T18:55:40.153Z,95220.41
2022-08-01T18:58:06.811Z,95220.41
2022-08-01T19:00:33.488Z,95229.66
2022-08-01T19:03:00.090Z,95230.88
2022-08-01T19:05:26.726Z,95234.91
2022-08-01T19:08:06.570Z,95240.97
2022-08-01T19:10:38.831Z,95241.63
2022-08-01T19:13:06.301Z,95240.63
2022-08-01T19:15:33.124Z,95239.00
2022-08-01T19:18:00.074Z,95250.91
2022-08-01T19:20:26.910Z,95250.69
2022-08-01T19:22:53.732Z,95244.25
2022-08-01T19:25:20.456Z,95253.09
2022-08-01T19:27:49.201Z,95243.84
2022-08-01T19:30:17.800Z,95249.81
2022-08-01T19:32:46.175Z,95248.38
2022-08-01T19:35:16.799Z,95243.34
2022-08-01T19:37:45.948Z,95236.69
2022-08-01T19:40:27.769Z,95246.16
2022-08-01T19:42:57.031Z,95246.69
2022-08-01T19:45:24.789Z,95253.50
2022-08-01T19:47:57.423Z,95258.69
2022-08-01T19:50:26.801Z,95265.06
2022-08-01T19:53:00.295Z,95267.59
2022-08-01T19:55:27.947Z,95267.94
2022-08-01T19:58:24.633Z,95266.28
2022-08-01T20:00:43.743Z,95278.16
2022-08-01T20:03:10.457Z,95281.63
2022-08-01T20:05:38.718Z,95284.00
2022-08-01T20:08:07.507Z,95278.16
2022-08-01T20:10:35.726Z,95277.25
2022-08-01T20:13:02.426Z,95275.41
2022-08-01T20:15:29.278Z,95283.34
2022-08-01T20:17:59.083Z,95279.97
2022-08-01T20:20:26.842Z,95269.34
2022-08-01T20:22:55.801Z,95267.22
2022-08-01T20:25:29.616Z,95270.25
2022-08-01T20:28:00.492Z,95277.13
2022-08-01T20:30:29.993Z,95273.63
2022-08-01T20:33:00.024Z,95268.91
2022-08-01T20:35:52.061Z,95279.56
2022-08-01T20:38:17.353Z,95281.56
2022-08-01T20:40:45.579Z,95289.72
2022-08-01T20:43:13.729Z,95289.22
2022-08-01T20:45:42.370Z,95291.16
2022-08-01T20:48:12.435Z,95298.13
2022-08-01T20:51:00.529Z,95300.88
2022-08-01T20:53:27.139Z,95318.06
2022-08-01T20:56:33.721Z,95327.94
2022-08-01T20:59:39.646Z,95349.91
2022-08-01T21:02:19.441Z,95368.63
2022-08-01T21:04:55.657Z,95390.63
2022-08-01T21:07:35.870Z,95377.53
2022-08-01T21:10:08.777Z,95386.91
2022-08-01T21:12:48.377Z,95378.53
2022-08-01T21:15:30.638Z,95366.53
2022-08-01T21:18:32.248Z,95381.97
2022-08-01T21:21:01.904Z,95412.09
2022-08-01T21:23:39.739Z,95415.84
2022-08-01T21:26:08.780Z,95401.72
2022-08-01T21:28:41.383Z,95410.00
2022-08-01T21:31:22.247Z,95403.00
2022-08-01T21:34:00.779Z,95405.59
2022-08-01T21:36:31.281Z,95401.38
2022-08-01T21:38:59.634Z,95397.75
2022-08-01T21:42:03.412Z,95404.34
2022-08-01T21:44:16.499Z,95403.59
2022-08-01T21:46:44.023Z,95408.22
2022-08-01T21:49:11.489Z,95400.75
2022-08-01T21:51:52.106Z,95398.50
2022-08-01T21:54:41.070Z,95399.13
2022-08-01T21:57:26.891Z,95396.16
2022-08-01T22:00:09.346Z,95397.28
2022-08-01T22:02:42.535Z,95395.25
2022-08-01T22:05:10.781Z,95402.06
2022-08-01T22:07:48.488Z,95392.56
2022-08-01T22:10:20.232Z,95393.44
2022-08-01T22:12:47.474Z,95382.31
2022-08-01T22:15:14.812Z,95375.63
2022-08-01T22:17:42.163Z,95376.66
2022-08-01T22:20:09.410Z,95381.44
2022-08-01T22:22:51.164Z,95380.09
2022-08-01T22:25:20.449Z,95369.00
2022-08-01T22:28:08.060Z,95370.94
2022-08-01T22:30:39.830Z,95383.22
2022-08-01T22:33:17.274Z,95386.75
2022-08-01T22:35:46.997Z,95384.00
2022-08-01T22:38:14.145Z,95378.00
2022-08-01T22:40:54.045Z,95370.31
2022-08-01T22:43:23.634Z,95369.16
2022-08-01T22:46:13.094Z,95372.03
2022-08-01T22:48:51.487Z,95372.41
2022-08-01T22:51:36.912Z,95372.50
2022-08-01T22:54:09.855Z,95379.78
2022-08-01T22:56:53.253Z,95378.16
2022-08-01T22:59:42.619Z,95375.06
2022-08-01T23:02:15.786Z,95370.31
2022-08-01T23:04:45.698Z,95358.72
2022-08-01T23:07:19.092Z,95361.16
2022-08-01T23:09:53.619Z,95361.41
2022-08-01T23:12:24.807Z,95356.03
2022-08-01T23:14:54.363Z,95356.38
2022-08-01T23:17:27.547Z,95361.72
2022-08-01T23:19:59.162Z,95356.66
2022-08-01T23:22:34.664Z,95351.47
2022-08-01T23:25:06.254Z,95355.31
2022-08-01T23:27:51.660Z,95365.50
2022-08-01T23:30:28.866Z,95366.53
2022-08-01T23:32:55.834Z,95362.66
2022-08-01T23:35:22.709Z,95369.59
2022-08-01T23:37:51.078Z,95375.50
2022-08-01T23:40:18.945Z,95372.34
2022-08-01T23:42:45.869Z,95371.00
2022-08-01T23:45:12.555Z,95369.34
2022-08-01T23:47:39.395Z,95369.22
2022-08-01T23:50:07.730Z,95366.44
2022-08-01T23:52:35.845Z,95361.94
2022-08-01T23:55:14.923Z,95360.84
2022-08-01T23:57:41.814Z,95360.84
